createdAt,value
2022-07-29T00:03:51.209Z,0
2022-07-29T00:09:08.583Z,0
2022-07-29T00:14:26.116Z,0
2022-07-29T00:19:45.583Z,0
2022-07-29T00:25:03.154Z,0
2022-07-29T00:30:21.754Z,0
2022-07-29T00:35:38.880Z,0
2022-07-29T00:40:56.329Z,0
2022-07-29T00:46:13.711Z,0
2022-07-29T00:51:31.867Z,0
2022-07-29T00:56:49.187Z,0
2022-07-29T01:02:06.870Z,0
2022-07-29T01:07:24.323Z,0
2022-07-29T01:12:41.684Z,0
2022-07-29T01:17:59.090Z,0
2022-07-29T01:29:20.050Z,0
2022-07-29T01:39:56.667Z,0
2022-07-29T01:45:31.262Z,0
2022-07-29T01:50:48.957Z,0
2022-07-29T01:56:06.377Z,0
2022-07-29T02:01:24.115Z,0
2022-07-29T02:06:41.485Z,0
2022-07-29T02:11:58.842Z,0
2022-07-29T02:17:16.360Z,0
2022-07-29T02:22:33.605Z,0
2022-07-29T02:27:50.795Z,0
2022-07-29T02:33:45.291Z,0
2022-07-29T02:39:03.334Z,0
2022-07-29T02:49:58.382Z,0
2022-07-29T02:55:18.288Z,0
2022-07-29T03:00:35.601Z,0
2022-07-29T03:05:52.739Z,0
2022-07-29T03:16:27.577Z,0.2
2022-07-29T03:21:50.055Z,0.7
2022-07-29T03:27:07.454Z,1.9
2022-07-29T03:32:25.294Z,4.6
2022-07-29T03:37:49.849Z,11.1
2022-07-29T03:43:07.550Z,21.7
2022-07-29T03:48:42.148Z,36.7
2022-07-29T03:53:59.331Z,63.7
2022-07-29T03:59:16.349Z,92.1
2022-07-29T04:04:33.490Z,137.5
2022-07-29T04:09:50.226Z,217.5
2022-07-29T04:15:31.259Z,305.4
2022-07-29T04:20:49.146Z,426.7
2022-07-29T04:26:06.027Z,474.6
2022-07-29T04:31:25.817Z,555.8
2022-07-29T04:36:46.640Z,738.7
2022-07-29T04:42:03.721Z,1041.7
2022-07-29T04:47:20.692Z,1433.3
2022-07-29T04:52:38.042Z,1859.2
2022-07-29T05:03:17.910Z,912.1
2022-07-29T05:08:34.621Z,584.2
2022-07-29T05:14:09.597Z,495.8
2022-07-29T05:19:26.813Z,580.8
2022-07-29T05:24:46.773Z,665.8
2022-07-29T05:30:03.918Z,622.9
2022-07-29T05:35:21.018Z,960
2022-07-29T05:40:38.106Z,1707.5
2022-07-29T05:45:55.962Z,2147.9
2022-07-29T05:51:13.537Z,2798.3
2022-07-29T06:01:51.090Z,5452.1
2022-07-29T06:07:27.702Z,4638.3
2022-07-29T06:12:45.173Z,4524.2
2022-07-29T06:18:02.070Z,4640.8
2022-07-29T06:23:19.090Z,4500
2022-07-29T06:28:35.997Z,3168.3
2022-07-29T06:33:54.639Z,2577.5
2022-07-29T06:39:12.326Z,2387.9
2022-07-29T06:44:29.604Z,2482.5
2022-07-29T06:49:46.567Z,2909.2
2022-07-29T06:55:03.567Z,3850
2022-07-29T07:00:25.813Z,5165
2022-07-29T07:05:43.205Z,6868.3
2022-07-29T07:11:00.628Z,8419.2
2022-07-29T07:26:58.612Z,12085.4
2022-07-29T07:32:16.222Z,16903.3
2022-07-29T07:37:42.658Z,24623.8
2022-07-29T07:42:59.224Z,10839.6
2022-07-29T07:48:26.748Z,28305
2022-07-29T07:53:44.829Z,31139.2
2022-07-29T07:59:02.835Z,27892.5
2022-07-29T08:04:23.540Z,17641.2
2022-07-29T08:09:42.366Z,24462.9
2022-07-29T08:15:01.159Z,15151.7
2022-07-29T08:20:17.948Z,20627.9
2022-07-29T08:25:34.655Z,12782.1
2022-07-29T08:30:55.083Z,20310.8
2022-07-29T08:36:14.352Z,42576.7
2022-07-29T08:41:32.441Z,36268.3
2022-07-29T08:46:47.339Z,8825.4
2022-07-29T08:52:06.788Z,6129.6
2022-07-29T08:57:22.847Z,5362.5
2022-07-29T09:02:39.382Z,6251.3
2022-07-29T09:07:56.395Z,8407.9
2022-07-29T09:13:17.663Z,10564.2
2022-07-29T09:18:34.957Z,13700.4
2022-07-29T09:23:52.461Z,17072.9
2022-07-29T09:29:10.801Z,22938.3
2022-07-29T09:34:28.350Z,22613.3
2022-07-29T09:39:45.663Z,22607.5
2022-07-29T09:45:03.235Z,24516.2
2022-07-29T09:50:23.428Z,23583.3
2022-07-29T09:55:40.879Z,49360
2022-07-29T10:01:01.794Z,48686.7
2022-07-29T10:06:51.482Z,55156.9
2022-07-29T10:12:09.580Z,61667
2022-07-29T10:22:53.302Z,55076
2022-07-29T10:28:32.032Z,63077.5
2022-07-29T10:33:49.945Z,62570.8
2022-07-29T10:44:26.415Z,56179.3
2022-07-29T10:49:46.957Z,64498.8
2022-07-29T10:55:07.701Z,64173.6
2022-07-29T11:05:41.619Z,57607.8
2022-07-29T11:10:59.365Z,64333.5
2022-07-29T11:16:16.400Z,61789.1
2022-07-29T11:21:49.072Z,65028.9
2022-07-29T11:27:13.215Z,63251.8
2022-07-29T11:32:30.458Z,67088.1
2022-07-29T11:37:52.447Z,63918.4
2022-07-29T11:43:13.144Z,60876.3
2022-07-29T11:48:39.169Z,62613.9
2022-07-29T11:53:55.913Z,64387.4
2022-07-29T11:59:17.139Z,65212.2
2022-07-29T12:05:12.128Z,65898.6
2022-07-29T12:10:30.782Z,68762.8
2022-07-29T12:15:48.408Z,66881.5
2022-07-29T12:21:05.523Z,66243.6
2022-07-29T12:26:25.704Z,67490.6
2022-07-29T12:31:45.392Z,64126.9
2022-07-29T12:37:15.112Z,61728
2022-07-29T12:42:31.998Z,62563.6
2022-07-29T12:47:48.964Z,64229.3
2022-07-29T12:53:05.990Z,64288.6
2022-07-29T12:58:22.992Z,62757.7
2022-07-29T13:03:40.058Z,63672.3
2022-07-29T13:08:57.381Z,63875.3
2022-07-29T13:14:14.539Z,69693.6
2022-07-29T13:19:30.190Z,24360
2022-07-29T13:24:45.487Z,36416.7
2022-07-29T13:30:05.207Z,28496.7
2022-07-29T13:35:21.903Z,32203.3
2022-07-29T13:40:37.229Z,25785.8
2022-07-29T13:51:22.309Z,25451.7
2022-07-29T13:56:39.048Z,19716.7
2022-07-29T14:01:56.376Z,33055.8
2022-07-29T14:12:33.933Z,41941.7
2022-07-29T14:17:52.889Z,44747.5
2022-07-29T14:23:33.936Z,32421.7
2022-07-29T14:28:51.953Z,49078.3
2022-07-29T14:34:09.066Z,44374.2
2022-07-29T14:39:25.518Z,50736.6
2022-07-29T14:44:57.920Z,41950.8
2022-07-29T14:50:13.959Z,36172.5
2022-07-29T14:55:29.968Z,31145
2022-07-29T15:00:46.626Z,26285
2022-07-29T15:06:03.120Z,35509.2
2022-07-29T15:11:51.559Z,22673.7
2022-07-29T15:17:08.093Z,13189.6
2022-07-29T15:22:24.846Z,30647.5
2022-07-29T15:27:41.998Z,27674.2
2022-07-29T15:33:06.624Z,24795.4
2022-07-29T15:38:28.753Z,9925
2022-07-29T15:43:50.614Z,10537.1
2022-07-29T15:49:08.498Z,10805.8
2022-07-29T15:54:25.186Z,8344.2
2022-07-29T15:59:41.811Z,11630
2022-07-29T16:05:00.769Z,11551.2
2022-07-29T16:10:22.130Z,11056.2
2022-07-29T16:15:39.383Z,11834.6
2022-07-29T16:20:56.452Z,12093.7
2022-07-29T16:26:13.311Z,6838.7
2022-07-29T16:31:29.590Z,4422.5
2022-07-29T16:36:47.904Z,3440.8
2022-07-29T16:42:05.838Z,5187.1
2022-07-29T16:47:23.139Z,7941.3
2022-07-29T16:52:45.887Z,7327.5
2022-07-29T16:58:02.802Z,5750.4
2022-07-29T17:08:42.520Z,8858.7
2022-07-29T17:13:59.319Z,6394.2
2022-07-29T17:19:15.911Z,5333.8
2022-07-29T17:24:32.795Z,4458.3
2022-07-29T17:29:49.565Z,3457.5
2022-07-29T17:35:06.886Z,3326.7
2022-07-29T17:40:23.631Z,3419.2
2022-07-29T17:45:49.278Z,3097.9
2022-07-29T17:51:07.515Z,2900.4
2022-07-29T17:56:40.873Z,2378.8
2022-07-29T18:01:58.282Z,1882.9
2022-07-29T18:07:15.190Z,1388.8
2022-07-29T18:17:50.428Z,985.4
2022-07-29T18:23:13.855Z,906.7
2022-07-29T18:28:30.899Z,902.1
2022-07-29T18:33:50.723Z,1051.7
2022-07-29T18:39:07.812Z,1376.2
2022-07-29T18:44:25.828Z,1410.8
2022-07-29T18:49:43.023Z,1254.2
2022-07-29T18:54:59.868Z,1090.4
2022-07-29T19:05:28.025Z,606.7
2022-07-29T19:10:44.736Z,455.4
2022-07-29T19:16:01.541Z,330.4
2022-07-29T19:21:18.358Z,241.3
2022-07-29T19:26:38.562Z,156.7
2022-07-29T19:31:55.285Z,95.4
2022-07-29T19:37:12.102Z,55.4
2022-07-29T19:42:29.314Z,28.3
2022-07-29T19:47:46.610Z,13.4
2022-07-29T19:53:09.212Z,5.5
2022-07-29T19:58:27.045Z,2.2
2022-07-29T20:03:44.455Z,0.8
2022-07-29T20:09:02.212Z,0.2
2022-07-29T20:14:19.394Z,0
2022-07-29T20:25:04.162Z,0
2022-07-29T20:30:38.860Z,0
2022-07-29T20:35:57.009Z,0
2022-07-29T20:41:14.354Z,0
2022-07-29T20:46:31.606Z,0
2022-07-29T20:51:54.130Z,0
2022-07-29T20:57:11.366Z,0
2022-07-29T21:02:32.336Z,0
2022-07-29T21:07:49.690Z,0
2022-07-29T21:13:06.844Z,0
2022-07-29T21:18:23.909Z,0
2022-07-29T21:23:50.055Z,0
2022-07-29T21:29:07.453Z,0
2022-07-29T21:34:24.397Z,0
2022-07-29T21:39:41.608Z,0
2022-07-29T21:45:10.788Z,0
2022-07-29T21:50:29.341Z,0
2022-07-29T21:55:46.516Z,0
2022-07-29T22:01:05.471Z,0
2022-07-29T22:06:24.750Z,0
2022-07-29T22:11:42.147Z,0
2022-07-29T22:16:59.887Z,0
2022-07-29T22:27:37.685Z,0
2022-07-29T22:32:55.042Z,0
2022-07-29T22:38:15.190Z,0
2022-07-29T22:43:35.530Z,0
2022-07-29T22:48:55.155Z,0
2022-07-29T22:54:15.113Z,0
2022-07-29T22:59:32.289Z,0
2022-07-29T23:04:49.562Z,0
2022-07-29T23:10:12.051Z,0
2022-07-29T23:15:29.493Z,0
2022-07-29T23:20:46.715Z,0
2022-07-29T23:26:21.251Z,0
2022-07-29T23:31:39.481Z,0
2022-07-29T23:37:00.368Z,0
2022-07-29T23:42:18.302Z,0
2022-07-29T23:47:35.627Z,0
2022-07-29T23:53:04.049Z,0
2022-07-29T23:58:21.756Z,0
